CheckWX is a tool to help pilots better visualize weather data.  It is not intended as a substitute for an official pre-flight weather briefing.

02:51:08 UTC

LEAS METAR
Asturias Airport
Ranón, Spain
Current

21 mins ago

LEAS 210230Z AUTO VRB02KT 9999 OVC006 16/16 Q1009
Observed
Sep-21 @ 02:30 UTC
Wind
  • Variable at 2 KTS
Visibility
10,000+ meters
Flight Rules
IFR
Cloud Levels
  • Overcast at 600' AGL
Temperature
16°C / 61°F
Dewpoint
16°C / 61°F
Humidity
100%
Altimeter
29.79" Hg
Pressure
1008.92 hPa
Previous

51 mins ago

LEAS 210200Z AUTO VRB02KT 9999 OVC006 16/16 Q1009
Observed
Sep-21 @ 02:00 UTC
Wind
  • Variable at 2 KTS
Visibility
10,000+ meters
Flight Rules
IFR
Cloud Levels
  • Overcast at 600' AGL
Temperature
16°C / 61°F
Dewpoint
16°C / 61°F
Humidity
100%
Altimeter
29.79" Hg
Pressure
1008.92 hPa
Previous

1 hour ago

LEAS 210130Z AUTO 19002KT 9999 OVC007 17/16 Q1009
Observed
Sep-21 @ 01:30 UTC
Wind
  • 190° at 2 KTS
Visibility
10,000+ meters
Flight Rules
IFR
Cloud Levels
  • Overcast at 700' AGL
Temperature
17°C / 63°F
Dewpoint
16°C / 61°F
Humidity
94%
Altimeter
29.79" Hg
Pressure
1008.92 hPa